Time;durP1;ratioP1;P1;durP2;ratioP2;P2;SDS_P1;SDS_P2;PMS_P1;PMS_P2;Temp;Humidity;BMP_temperature;BMP_pressure;BME280_temperature;BME280_humidity;BME280_pressure;Samples;Min_cycle;Max_cycle;Signal;HPM_P1;HPM_P2
2021/01/21 00:01:36;;;;;;;31.70;14.33;;;;;;;2.98;71.96;99161.48;147170;1149;104479;-75
2021/01/21 00:04:39;;;;;;;30.70;16.00;;;;;;;3.04;71.77;99163.63;147103;1150;104796;-74
2021/01/21 00:07:42;;;;;;;30.47;15.03;;;;;;;3.09;71.99;99155.30;147222;1150;104573;-74
2021/01/21 00:10:45;;;;;;;27.30;14.87;;;;;;;3.12;71.89;99161.16;147033;1150;104559;-74
2021/01/21 00:13:48;;;;;;;33.80;17.87;;;;;;;3.14;70.99;99156.58;147229;1150;104581;-74
2021/01/21 00:16:51;;;;;;;36.60;20.65;;;;;;;3.13;71.62;99151.44;147196;1150;104485;-74
2021/01/21 00:19:55;;;;;;;40.75;21.45;;;;;;;3.08;71.26;99149.21;147119;1150;104483;-74
2021/01/21 00:22:58;;;;;;;56.00;29.37;;;;;;;3.08;71.76;99161.53;147082;1150;104484;-74
2021/01/21 00:26:01;;;;;;;99.67;49.77;;;;;;;3.02;71.31;99159.42;147160;1150;104734;-72
2021/01/21 00:29:04;;;;;;;124.03;56.20;;;;;;;3.02;71.37;99160.28;147250;1150;104442;-73
2021/01/21 00:32:07;;;;;;;168.67;77.40;;;;;;;3.04;70.22;99154.86;147202;1149;104481;-73
2021/01/21 00:35:13;;;;;;;330.98;170.10;;;;;;;3.10;71.41;99168.36;147149;1149;104524;-73
2021/01/21 00:38:16;;;;;;;265.68;155.80;;;;;;;3.15;71.43;99166.14;147213;1149;104561;-73
2021/01/21 00:41:19;;;;;;;55.13;31.33;;;;;;;3.20;71.35;99162.30;147097;1150;104596;-74
2021/01/21 00:44:23;;;;;;;57.87;33.27;;;;;;;3.21;70.63;99169.22;147188;1150;104558;-75
2021/01/21 00:47:27;;;;;;;37.17;21.62;;;;;;;3.21;70.52;99158.68;147179;1150;104506;-75
2021/01/21 00:50:30;;;;;;;35.50;20.17;;;;;;;3.20;71.61;99170.20;147141;1150;104475;-74
2021/01/21 00:53:33;;;;;;;32.97;18.10;;;;;;;3.13;71.67;99164.61;147187;1150;104464;-74
2021/01/21 00:56:38;;;;;;;33.03;19.33;;;;;;;3.09;70.18;99163.21;147133;1150;104569;-74
2021/01/21 00:59:42;;;;;;;47.38;22.35;;;;;;;3.04;70.29;99165.40;147116;1150;104590;-73
2021/01/21 01:02:46;;;;;;;62.13;36.50;;;;;;;3.02;70.44;99157.65;146942;1150;104460;-73
2021/01/21 01:05:49;;;;;;;30.85;15.72;;;;;;;3.07;71.14;99162.52;147139;1150;104569;-75
2021/01/21 01:08:52;;;;;;;43.58;25.35;;;;;;;3.09;70.86;99156.13;147251;1150;104565;-74
2021/01/21 01:11:56;;;;;;;50.08;28.35;;;;;;;3.09;70.93;99158.77;147080;1150;104649;-74
2021/01/21 01:14:59;;;;;;;33.80;18.70;;;;;;;3.07;71.26;99162.52;147163;1150;104496;-74
2021/01/21 01:18:03;;;;;;;33.20;19.05;;;;;;;3.00;71.67;99149.02;146965;1150;104551;-74
2021/01/21 01:21:06;;;;;;;38.13;21.17;;;;;;;2.94;70.02;99144.27;147139;1150;104483;-74
2021/01/21 01:24:11;;;;;;;43.87;25.82;;;;;;;2.89;70.86;99146.49;147209;1150;104569;-73
2021/01/21 01:27:18;;;;;;;41.20;23.38;;;;;;;2.85;70.97;99142.42;147167;1150;105138;-73
2021/01/21 01:30:22;;;;;;;39.80;21.27;;;;;;;2.78;70.37;99149.20;147151;1150;104526;-72
2021/01/21 01:33:25;;;;;;;44.37;24.30;;;;;;;2.77;70.21;99137.81;146825;1150;104570;-74
2021/01/21 01:36:29;;;;;;;38.53;20.50;;;;;;;2.81;70.25;99138.38;147053;1149;104473;-72
2021/01/21 01:39:34;;;;;;;39.90;22.35;;;;;;;2.80;71.88;99144.63;147191;1149;104896;-72
2021/01/21 01:42:46;;;;;;;34.03;18.25;;;;;;;2.80;71.30;99136.73;147127;1149;104561;-74
2021/01/21 01:45:51;;;;;;;44.03;24.30;;;;;;;2.77;70.22;99136.98;147093;1149;104523;-74
2021/01/21 01:48:57;;;;;;;37.30;19.55;;;;;;;2.72;70.51;99132.94;146971;1149;105074;-75
2021/01/21 01:52:04;;;;;;;52.78;26.95;;;;;;;2.66;70.47;99144.00;147173;1149;104554;-74
2021/01/21 01:55:11;;;;;;;50.87;22.63;;;;;;;2.58;70.32;99138.56;147217;1149;104493;-71
2021/01/21 01:58:18;;;;;;;71.42;32.98;;;;;;;2.54;70.35;99129.23;147044;1150;104576;-72
2021/01/21 02:01:26;;;;;;;135.10;65.72;;;;;;;2.57;71.18;99134.25;147083;1149;104514;-73
2021/01/21 02:04:30;;;;;;;57.73;24.82;;;;;;;2.61;71.26;99140.92;147218;1150;104540;-73
2021/01/21 02:07:55;;;;;;;90.38;37.60;;;;;;;2.64;70.92;99138.03;147225;1149;104518;-74
2021/01/21 02:11:04;;;;;;;49.75;22.95;;;;;;;2.62;70.40;99134.70;147142;1150;104550;-71
2021/01/21 02:14:17;;;;;;;40.12;19.20;;;;;;;2.63;71.45;99131.08;147139;1149;104565;-73
2021/01/21 02:17:28;;;;;;;36.75;19.30;;;;;;;2.61;71.42;99138.28;146962;1150;104540;-73
2021/01/21 02:21:10;;;;;;;37.20;17.37;;;;;;;2.55;71.40;99123.01;146973;1150;104519;-73
2021/01/21 02:25:02;;;;;;;51.20;22.17;;;;;;;2.48;71.19;99133.23;147039;1150;104495;-73
2021/01/21 02:28:50;;;;;;;41.75;20.20;;;;;;;2.45;71.03;99135.29;147230;1150;104619;-73
2021/01/21 02:32:08;;;;;;;40.15;19.67;;;;;;;2.52;71.53;99129.38;146886;1149;104668;-73
2021/01/21 02:35:47;;;;;;;35.15;16.45;;;;;;;2.59;70.83;99119.14;147225;1150;105065;-73
2021/01/21 02:38:53;;;;;;;50.05;23.62;;;;;;;2.65;71.56;99129.16;147185;1150;104477;-72
2021/01/21 02:41:57;;;;;;;43.17;21.33;;;;;;;2.69;70.88;99125.29;147213;1150;104614;-73
2021/01/21 02:45:00;;;;;;;45.83;22.22;;;;;;;2.68;71.68;99118.38;147204;1150;104614;-73
2021/01/21 02:48:11;;;;;;;41.33;21.07;;;;;;;2.66;72.40;99120.30;147065;1150;104642;-73
2021/01/21 02:51:41;;;;;;;36.58;19.17;;;;;;;2.62;71.17;99123.31;147074;1148;104568;-71
2021/01/21 02:55:03;;;;;;;37.80;18.98;;;;;;;2.53;71.65;99114.41;147197;1150;104553;-73
2021/01/21 02:58:13;;;;;;;48.28;21.70;;;;;;;2.52;71.97;99116.21;147052;1150;104701;-73
2021/01/21 03:01:17;;;;;;;59.15;26.50;;;;;;;2.56;70.80;99114.16;147131;1150;104570;-73
2021/01/21 03:04:25;;;;;;;43.67;21.97;;;;;;;2.60;71.75;99112.93;147163;1150;104645;-73
2021/01/21 03:07:29;;;;;;;42.10;21.33;;;;;;;2.63;72.36;99115.28;147134;1150;104608;-73
2021/01/21 03:10:35;;;;;;;38.98;20.02;;;;;;;2.65;70.86;99118.62;147170;1150;104480;-73
2021/01/21 03:13:40;;;;;;;35.83;19.43;;;;;;;2.65;71.56;99125.70;147123;1151;104420;-71
2021/01/21 03:16:43;;;;;;;44.50;22.90;;;;;;;2.61;70.83;99127.75;147227;1148;104550;-72
2021/01/21 03:19:48;;;;;;;44.00;22.83;;;;;;;2.57;71.07;99136.05;147157;1150;104630;-72
2021/01/21 03:22:52;;;;;;;45.90;22.62;;;;;;;2.53;71.56;99135.47;147119;1148;104559;-72
2021/01/21 03:25:56;;;;;;;44.33;22.17;;;;;;;2.47;72.42;99147.35;146945;1150;104480;-72
2021/01/21 03:28:59;;;;;;;49.47;24.43;;;;;;;2.46;71.66;99137.77;147174;1150;104534;-72
2021/01/21 03:32:03;;;;;;;41.65;20.25;;;;;;;2.46;72.51;99143.03;147176;1150;104485;-72
2021/01/21 03:35:18;;;;;;;50.23;25.90;;;;;;;2.49;71.73;99150.69;147141;1150;104602;-71
2021/01/21 03:38:25;;;;;;;46.05;25.72;;;;;;;2.48;72.16;99149.03;147224;1150;104685;-71
2021/01/21 03:41:50;;;;;;;46.45;23.30;;;;;;;2.45;72.58;99145.82;146704;1149;104583;-74
2021/01/21 03:45:09;;;;;;;45.75;24.37;;;;;;;2.38;70.99;99148.11;147164;1149;104493;-72
2021/01/21 03:48:13;;;;;;;42.40;21.37;;;;;;;2.30;71.99;99151.39;146998;1149;104605;-72
2021/01/21 03:51:36;;;;;;;50.63;26.02;;;;;;;2.28;72.68;99148.05;146837;1151;104633;-72
2021/01/21 03:54:52;;;;;;;52.38;25.55;;;;;;;2.29;72.69;99143.61;147327;1148;104567;-71
2021/01/21 03:57:56;;;;;;;48.73;24.65;;;;;;;2.32;72.03;99144.20;147092;1150;104554;-71
2021/01/21 04:01:05;;;;;;;59.85;29.15;;;;;;;2.34;72.02;99144.90;146948;1150;104485;-71
2021/01/21 04:04:09;;;;;;;158.80;72.77;;;;;;;2.35;72.15;99133.42;146997;1150;104673;-71
2021/01/21 04:07:12;;;;;;;198.35;102.60;;;;;;;2.33;72.27;99135.34;147034;1150;104591;-69
2021/01/21 04:10:16;;;;;;;115.00;59.35;;;;;;;2.29;72.30;99133.08;146822;1149;104565;-69
2021/01/21 04:13:42;;;;;;;72.37;35.60;;;;;;;2.20;71.40;99133.88;146842;1148;104575;-69
2021/01/21 04:16:49;;;;;;;62.07;30.73;;;;;;;2.15;71.51;99132.43;146917;1150;105159;-71
2021/01/21 04:19:52;;;;;;;147.75;73.33;;;;;;;2.14;72.02;99130.78;146891;1150;104505;-69
2021/01/21 04:22:56;;;;;;;79.50;39.90;;;;;;;2.17;72.10;99124.41;146920;1149;104648;-70
2021/01/21 04:25:59;;;;;;;140.07;72.58;;;;;;;2.20;72.25;99121.54;147173;1151;104501;-71
2021/01/21 04:29:04;;;;;;;86.75;45.23;;;;;;;2.20;72.55;99116.28;147004;1150;104551;-71
2021/01/21 04:32:08;;;;;;;97.85;51.20;;;;;;;2.15;72.16;99121.91;146569;1149;105215;-72
2021/01/21 04:35:13;;;;;;;78.50;39.85;;;;;;;2.10;71.80;99118.84;146709;1149;104578;-73
2021/01/21 04:38:18;;;;;;;68.27;34.63;;;;;;;2.06;73.00;99113.94;147037;1150;104627;-69
2021/01/21 04:41:37;;;;;;;67.60;33.27;;;;;;;2.06;71.80;99111.30;147038;1149;104504;-69
2021/01/21 04:44:50;;;;;;;66.02;34.60;;;;;;;2.06;71.50;99114.80;147023;1148;104530;-71
2021/01/21 04:48:00;;;;;;;62.70;31.73;;;;;;;2.09;72.06;99116.33;147039;1150;104474;-70
2021/01/21 04:51:13;;;;;;;58.83;31.42;;;;;;;2.10;72.39;99123.27;147087;1150;104553;-70
2021/01/21 04:54:29;;;;;;;59.63;31.52;;;;;;;2.10;71.42;99121.47;146964;1150;104575;-70
2021/01/21 04:57:45;;;;;;;56.60;30.10;;;;;;;2.10;72.22;99113.58;146754;1149;104636;-70
2021/01/21 05:00:55;;;;;;;52.27;25.77;;;;;;;2.13;71.89;99115.11;147015;1150;104538;-69
2021/01/21 05:03:59;;;;;;;59.13;31.73;;;;;;;2.22;72.30;99114.34;147005;1149;104485;-69
2021/01/21 05:07:19;;;;;;;49.53;25.72;;;;;;;2.31;72.01;99110.09;147027;1150;104457;-69
2021/01/21 05:10:23;;;;;;;51.87;27.50;;;;;;;2.39;72.13;99117.35;147058;1149;104598;-69
2021/01/21 05:13:27;;;;;;;52.35;26.00;;;;;;;2.43;72.75;99108.26;147104;1150;104535;-69
2021/01/21 05:17:08;;;;;;;64.77;35.20;;;;;;;2.44;71.97;99120.44;147029;1149;104562;-69
2021/01/21 05:20:27;;;;;;;55.60;29.40;;;;;;;2.45;72.09;99114.23;147011;1149;104545;-71
2021/01/21 05:23:49;;;;;;;54.93;27.73;;;;;;;2.44;71.78;99120.44;146986;1150;104899;-71
2021/01/21 05:27:15;;;;;;;58.05;30.20;;;;;;;2.49;72.11;99118.27;146991;1150;104640;-71
2021/01/21 05:30:28;;;;;;;48.93;25.13;;;;;;;2.55;71.46;99123.01;147082;1150;104570;-70
2021/01/21 05:33:34;;;;;;;47.23;22.50;;;;;;;2.65;72.17;99121.25;147035;1150;105001;-69
2021/01/21 05:36:45;;;;;;;43.67;22.23;;;;;;;2.75;72.09;99123.94;146960;1150;104533;-69
2021/01/21 05:39:57;;;;;;;44.93;23.57;;;;;;;2.80;72.99;99120.93;147034;1151;104650;-71
2021/01/21 05:43:19;;;;;;;46.13;25.08;;;;;;;2.84;72.04;99124.97;147027;1150;104636;-71
2021/01/21 05:46:37;;;;;;;44.83;23.70;;;;;;;2.85;72.85;99118.71;147029;1151;104571;-70
2021/01/21 05:49:40;;;;;;;42.30;22.47;;;;;;;2.82;72.18;99118.99;147069;1149;104643;-68
2021/01/21 05:52:49;;;;;;;39.17;21.90;;;;;;;2.80;72.17;99120.93;147156;1151;105545;-69
2021/01/21 05:55:55;;;;;;;44.45;22.10;;;;;;;2.74;72.18;99117.84;147062;1149;104545;-69
2021/01/21 05:59:02;;;;;;;39.42;21.25;;;;;;;2.79;73.01;99121.88;146972;1149;104582;-69
2021/01/21 06:02:06;;;;;;;68.50;31.50;;;;;;;2.85;72.22;99114.30;147079;1149;104565;-70
2021/01/21 06:05:18;;;;;;;50.92;25.75;;;;;;;2.91;72.33;99118.21;146752;1148;104531;-69
2021/01/21 06:08:24;;;;;;;53.08;26.77;;;;;;;2.96;71.65;99115.98;146926;1150;105065;-69
2021/01/21 06:11:30;;;;;;;44.10;23.52;;;;;;;2.99;72.90;99105.20;146958;1148;104518;-69
2021/01/21 06:14:34;;;;;;;45.25;23.57;;;;;;;2.99;73.03;99115.73;146917;1150;104559;-70
2021/01/21 06:17:37;;;;;;;45.63;22.05;;;;;;;2.97;71.95;99112.41;147060;1150;104483;-70
2021/01/21 06:21:17;;;;;;;43.40;21.52;;;;;;;2.97;71.59;99114.21;146998;1151;104532;-72
2021/01/21 06:24:43;;;;;;;43.13;22.27;;;;;;;3.00;71.39;99114.75;147004;1151;104462;-72
2021/01/21 06:27:48;;;;;;;37.20;20.90;;;;;;;3.05;72.22;99117.84;146505;1149;104490;-71
2021/01/21 06:30:53;;;;;;;40.83;21.35;;;;;;;3.12;72.21;99121.61;146678;1149;104625;-70
2021/01/21 06:33:58;;;;;;;44.67;24.47;;;;;;;3.13;72.00;99119.80;147087;1150;104547;-71
2021/01/21 06:37:04;;;;;;;39.70;20.97;;;;;;;3.14;71.90;99124.13;146991;1150;104643;-70
2021/01/21 06:40:11;;;;;;;38.35;21.45;;;;;;;3.12;72.04;99133.97;146963;1148;104885;-72
2021/01/21 06:43:17;;;;;;;39.45;22.17;;;;;;;3.08;72.27;99130.77;146662;1148;104606;-70
2021/01/21 06:46:21;;;;;;;41.90;21.93;;;;;;;3.07;71.49;99131.71;146648;1148;104644;-70
2021/01/21 06:49:25;;;;;;;43.75;22.80;;;;;;;3.12;72.83;99126.06;146918;1148;104547;-70
2021/01/21 06:52:31;;;;;;;40.30;19.43;;;;;;;3.17;71.33;99123.02;146709;1148;104595;-71
2021/01/21 06:55:35;;;;;;;48.10;24.07;;;;;;;3.25;71.62;99120.53;146884;1150;104559;-70
2021/01/21 06:58:52;;;;;;;38.42;21.07;;;;;;;3.28;71.92;99126.38;147038;1149;104525;-70
2021/01/21 07:01:56;;;;;;;60.67;30.50;;;;;;;3.29;71.57;99127.20;147095;1150;104695;-69
2021/01/21 07:05:10;;;;;;;52.00;28.52;;;;;;;3.29;71.69;99121.93;147115;1150;104504;-70
2021/01/21 07:08:13;;;;;;;45.98;25.00;;;;;;;3.27;71.95;99129.14;147056;1150;104552;-69
2021/01/21 07:11:18;;;;;;;48.87;25.47;;;;;;;3.26;71.64;99135.40;146990;1150;105546;-69
2021/01/21 07:14:22;;;;;;;61.90;30.30;;;;;;;3.32;72.69;99140.95;146679;1150;104559;-70
2021/01/21 07:17:29;;;;;;;131.70;63.35;;;;;;;3.38;72.21;99136.12;146898;1148;104639;-70
2021/01/21 07:20:36;;;;;;;117.75;57.48;;;;;;;3.43;70.89;99134.75;147344;1148;104560;-70
2021/01/21 07:23:46;;;;;;;289.60;139.97;;;;;;;3.46;71.43;99136.27;147097;1148;104602;-70
2021/01/21 07:26:52;;;;;;;115.12;51.95;;;;;;;3.47;72.24;99127.41;146968;1148;105018;-71
2021/01/21 07:30:16;;;;;;;325.10;171.63;;;;;;;3.51;72.45;99132.27;146494;1148;104486;-71
2021/01/21 07:33:25;;;;;;;218.55;111.40;;;;;;;3.54;70.87;99132.00;146782;1148;104652;-71
2021/01/21 07:36:31;;;;;;;125.90;67.15;;;;;;;3.54;72.03;99125.88;146945;1148;104587;-70
2021/01/21 07:39:53;;;;;;;254.82;139.32;;;;;;;3.56;71.89;99128.38;146943;1148;104535;-70
2021/01/21 07:42:56;;;;;;;95.30;49.67;;;;;;;3.63;70.85;99124.23;146578;1148;104452;-70
2021/01/21 07:46:24;;;;;;;59.08;33.08;;;;;;;3.74;70.41;99126.75;146507;1148;104555;-70
2021/01/21 07:49:28;;;;;;;71.13;39.17;;;;;;;3.83;70.43;99120.66;147115;1148;104555;-70
2021/01/21 07:52:40;;;;;;;284.83;172.95;;;;;;;3.90;70.42;99116.47;147056;1149;104560;-71
2021/01/21 07:55:43;;;;;;;175.38;98.87;;;;;;;3.98;70.36;99117.59;146838;1151;104565;-70
2021/01/21 07:58:47;;;;;;;114.40;65.42;;;;;;;4.03;70.48;99126.77;147058;1148;104569;-69
2021/01/21 08:02:00;;;;;;;62.43;34.43;;;;;;;4.06;70.83;99123.00;147106;1148;104545;-70
2021/01/21 08:05:04;;;;;;;58.63;34.80;;;;;;;4.09;69.84;99114.82;146986;1148;104540;-71
2021/01/21 08:08:08;;;;;;;67.90;39.58;;;;;;;4.10;70.98;99117.33;147140;1148;104582;-70
2021/01/21 08:11:13;;;;;;;67.33;36.57;;;;;;;4.16;70.45;99115.94;147091;1148;104569;-71
2021/01/21 08:14:17;;;;;;;41.02;22.85;;;;;;;4.24;70.10;99123.16;147014;1150;104479;-70
2021/01/21 08:17:20;;;;;;;43.90;24.50;;;;;;;4.38;70.30;99117.42;147062;1150;104540;-70
2021/01/21 08:20:25;;;;;;;74.05;39.75;;;;;;;4.51;70.41;99120.60;147032;1148;104613;-70
2021/01/21 08:23:30;;;;;;;75.12;44.53;;;;;;;4.67;70.07;99116.53;146952;1148;104548;-70
2021/01/21 08:26:34;;;;;;;51.83;28.32;;;;;;;4.78;69.51;99121.65;147056;1148;104559;-70
2021/01/21 08:29:37;;;;;;;40.35;21.75;;;;;;;4.86;68.95;99124.39;146985;1148;104492;-72
2021/01/21 08:32:42;;;;;;;50.53;30.83;;;;;;;4.92;69.34;99122.98;147007;1148;104479;-70
2021/01/21 08:35:49;;;;;;;40.35;25.02;;;;;;;4.92;69.57;99130.92;147055;1148;104642;-70
2021/01/21 08:38:54;;;;;;;53.63;31.05;;;;;;;4.94;69.28;99133.42;147057;1148;104541;-70
2021/01/21 08:41:58;;;;;;;41.05;24.67;;;;;;;4.94;69.24;99125.49;147057;1148;104541;-70
2021/01/21 08:45:02;;;;;;;46.58;28.12;;;;;;;4.90;69.58;99123.13;147051;1148;104671;-69
2021/01/21 08:48:06;;;;;;;40.88;25.82;;;;;;;4.86;69.51;99123.58;146945;1148;104607;-73
2021/01/21 08:51:28;;;;;;;44.23;26.40;;;;;;;4.83;69.60;99127.34;146852;1148;104636;-71
2021/01/21 08:54:31;;;;;;;77.30;42.10;;;;;;;4.78;69.14;99126.11;147113;1148;104559;-71
2021/01/21 08:57:34;;;;;;;42.30;22.45;;;;;;;4.85;69.32;99127.17;146943;1148;104532;-70
2021/01/21 09:00:39;;;;;;;60.88;33.25;;;;;;;4.92;69.51;99130.92;146974;1150;104480;-70
2021/01/21 09:03:47;;;;;;;54.75;30.45;;;;;;;5.03;69.28;99133.39;147040;1148;104470;-71
2021/01/21 09:06:55;;;;;;;91.75;49.05;;;;;;;5.11;69.21;99125.55;147061;1150;104546;-71
2021/01/21 09:10:10;;;;;;;51.80;29.57;;;;;;;5.22;69.37;99127.19;147037;1148;104601;-71
2021/01/21 09:13:19;;;;;;;83.07;45.80;;;;;;;5.31;69.17;99134.25;146882;1148;104921;-72
2021/01/21 09:16:40;;;;;;;60.75;33.95;;;;;;;5.39;68.99;99136.16;147008;1148;104870;-71
2021/01/21 09:19:44;;;;;;;72.50;42.98;;;;;;;5.50;68.92;99129.81;147063;1149;104572;-70
2021/01/21 09:22:49;;;;;;;66.07;38.85;;;;;;;5.56;68.93;99121.27;147003;1148;104638;-71
2021/01/21 09:25:52;;;;;;;57.67;36.77;;;;;;;5.61;69.06;99123.49;147153;1148;105007;-71
2021/01/21 09:28:59;;;;;;;52.83;30.88;;;;;;;5.66;68.50;99129.18;147054;1148;104604;-71
2021/01/21 09:32:05;;;;;;;1250.67;719.70;;;;;;;5.66;68.53;99126.53;147010;1148;104483;-72
2021/01/21 09:35:12;;;;;;;562.43;320.90;;;;;;;5.64;68.33;99126.67;147103;1148;104468;-71
2021/01/21 09:38:15;;;;;;;275.43;162.63;;;;;;;5.63;68.39;99119.70;146885;1148;104585;-71
2021/01/21 09:41:18;;;;;;;108.63;62.03;;;;;;;5.62;68.55;99118.05;146496;1148;104559;-70
2021/01/21 09:44:21;;;;;;;56.37;32.17;;;;;;;5.61;68.47;99112.91;146472;1148;104559;-69
2021/01/21 09:47:24;;;;;;;60.05;38.65;;;;;;;5.60;68.80;99108.58;146919;1148;104600;-70
2021/01/21 09:50:29;;;;;;;89.20;52.08;;;;;;;5.56;68.44;99109.87;146766;1148;104556;-69
2021/01/21 09:53:32;;;;;;;109.50;59.83;;;;;;;5.55;68.60;99092.34;146957;1148;104735;-70
2021/01/21 09:56:35;;;;;;;69.90;39.07;;;;;;;5.63;68.16;99100.36;147064;1148;104486;-69
2021/01/21 09:59:39;;;;;;;91.22;51.23;;;;;;;5.72;68.86;99088.88;147078;1148;104545;-70
2021/01/21 10:02:42;;;;;;;83.40;49.83;;;;;;;5.82;68.20;99089.62;146919;1148;104466;-70
2021/01/21 10:05:46;;;;;;;49.88;32.17;;;;;;;5.87;67.95;99092.66;146675;1150;104467;-69
2021/01/21 10:08:50;;;;;;;42.88;26.60;;;;;;;5.94;68.21;99094.70;146965;1150;104724;-70
2021/01/21 10:11:53;;;;;;;97.05;58.68;;;;;;;5.99;68.06;99084.52;146899;1150;104579;-70
2021/01/21 10:14:58;;;;;;;44.27;26.52;;;;;;;5.99;67.64;99084.52;146719;1150;104962;-70
2021/01/21 10:18:01;;;;;;;43.05;26.73;;;;;;;6.01;68.57;99083.38;147013;1149;104501;-71
2021/01/21 10:21:04;;;;;;;77.10;50.73;;;;;;;6.04;68.41;99082.23;146841;1150;104514;-70
2021/01/21 10:24:09;;;;;;;39.85;26.10;;;;;;;6.07;68.23;99081.93;147020;1148;105049;-71
2021/01/21 10:27:12;;;;;;;36.80;21.77;;;;;;;6.06;68.11;99067.02;147139;1148;104534;-70
2021/01/21 10:30:17;;;;;;;31.45;19.80;;;;;;;6.08;67.80;99063.25;147025;1148;104438;-72
2021/01/21 10:33:20;;;;;;;38.65;25.37;;;;;;;6.08;67.35;99059.75;147078;1148;104470;-72
2021/01/21 10:36:23;;;;;;;28.12;16.80;;;;;;;6.07;67.72;99056.27;147134;1148;104933;-72
2021/01/21 10:39:27;;;;;;;27.37;17.70;;;;;;;6.07;67.71;99050.98;147035;1148;104534;-71
2021/01/21 10:42:30;;;;;;;28.60;17.77;;;;;;;6.09;67.85;99056.13;146823;1148;104664;-71
2021/01/21 10:45:33;;;;;;;33.20;19.55;;;;;;;6.09;67.54;99054.30;146911;1148;104597;-71
2021/01/21 10:48:36;;;;;;;24.95;15.83;;;;;;;6.11;68.19;99056.80;146994;1148;104600;-72
2021/01/21 10:51:39;;;;;;;24.63;15.37;;;;;;;6.09;67.23;99062.25;146903;1148;104547;-70
2021/01/21 10:54:43;;;;;;;26.40;16.23;;;;;;;6.13;67.18;99054.83;146556;1148;104689;-69
2021/01/21 10:57:46;;;;;;;27.80;16.85;;;;;;;6.11;67.16;99048.86;147077;1148;104442;-69
2021/01/21 11:00:49;;;;;;;26.30;17.27;;;;;;;6.07;67.23;99042.21;147007;1148;104562;-70
2021/01/21 11:03:52;;;;;;;25.55;16.40;;;;;;;6.07;67.21;99050.98;147049;1148;104471;-70
2021/01/21 11:06:55;;;;;;;24.87;16.13;;;;;;;6.07;67.55;99052.80;147063;1148;104529;-71
2021/01/21 11:09:59;;;;;;;27.35;15.83;;;;;;;6.13;67.36;99065.42;146847;1148;104716;-69
2021/01/21 11:13:02;;;;;;;27.50;17.20;;;;;;;6.20;67.45;99061.18;147143;1148;104516;-70
2021/01/21 11:16:06;;;;;;;27.55;16.05;;;;;;;6.29;67.15;99065.56;147027;1148;104499;-70
2021/01/21 11:19:09;;;;;;;26.45;16.00;;;;;;;6.37;67.17;99066.58;146988;1149;104475;-69
2021/01/21 11:22:13;;;;;;;26.73;16.32;;;;;;;6.40;67.27;99053.03;146808;1150;104452;-69
2021/01/21 11:25:16;;;;;;;28.07;16.53;;;;;;;6.45;67.77;99054.23;146992;1148;104527;-70
2021/01/21 11:28:21;;;;;;;24.27;14.87;;;;;;;6.49;66.80;99042.33;147044;1149;104574;-69
2021/01/21 11:31:25;;;;;;;26.07;15.88;;;;;;;6.52;66.93;99040.34;147026;1148;104671;-70
2021/01/21 11:34:28;;;;;;;33.70;19.80;;;;;;;6.53;66.55;99026.95;147105;1150;104550;-71
2021/01/21 11:37:31;;;;;;;47.23;25.35;;;;;;;6.56;66.41;99018.66;146775;1150;104508;-70
2021/01/21 11:40:35;;;;;;;52.27;28.73;;;;;;;6.60;66.68;99035.94;146501;1150;104737;-70
2021/01/21 11:43:38;;;;;;;26.68;16.48;;;;;;;6.63;66.90;99032.95;147925;1150;104482;-70
2021/01/21 11:46:41;;;;;;;33.80;21.17;;;;;;;6.65;67.59;99041.58;146645;1150;104569;-70
2021/01/21 11:49:45;;;;;;;37.67;22.55;;;;;;;6.68;67.26;99041.27;146578;1150;104471;-70
2021/01/21 11:52:48;;;;;;;30.90;17.98;;;;;;;6.70;67.11;99046.42;147060;1148;104479;-70
2021/01/21 11:55:52;;;;;;;28.62;17.70;;;;;;;6.72;66.80;99035.64;147061;1150;104548;-71
2021/01/21 11:58:55;;;;;;;94.05;54.38;;;;;;;6.69;66.86;99029.66;147080;1150;104630;-69
2021/01/21 12:01:58;;;;;;;47.83;27.67;;;;;;;6.66;65.83;99023.88;147002;1150;104491;-70
2021/01/21 12:05:01;;;;;;;33.35;19.95;;;;;;;6.65;66.74;99044.23;146851;1149;104559;-70
2021/01/21 12:08:05;;;;;;;71.82;40.85;;;;;;;6.66;66.27;99040.60;146909;1150;104494;-70
2021/01/21 12:11:08;;;;;;;75.03;44.03;;;;;;;6.67;66.79;99021.05;146606;1148;104655;-70
2021/01/21 12:14:11;;;;;;;167.50;86.22;;;;;;;6.67;67.31;99014.92;146764;1150;104815;-71
2021/01/21 12:17:15;;;;;;;69.57;36.70;;;;;;;6.66;66.96;99006.14;147229;1148;104484;-71
2021/01/21 12:20:20;;;;;;;77.20;39.77;;;;;;;6.71;67.18;99012.78;147110;1150;104490;-70
2021/01/21 12:23:23;;;;;;;58.35;33.48;;;;;;;6.75;66.32;99008.82;146679;1149;104545;-72
2021/01/21 12:26:27;;;;;;;102.92;52.65;;;;;;;6.78;67.37;99000.56;146777;1150;104676;-71
2021/01/21 12:29:31;;;;;;;77.87;39.27;;;;;;;6.81;66.19;99000.22;147005;1150;104510;-72
2021/01/21 12:32:34;;;;;;;440.00;223.15;;;;;;;6.85;66.65;99010.37;147029;1150;104488;-70
2021/01/21 12:35:38;;;;;;;171.90;77.15;;;;;;;6.88;66.96;99006.55;146899;1149;104479;-70
2021/01/21 12:38:42;;;;;;;370.67;215.80;;;;;;;6.92;65.98;99002.59;146842;1148;104965;-73
2021/01/21 12:41:45;;;;;;;132.03;66.50;;;;;;;6.94;65.67;98997.95;147027;1148;104535;-72
2021/01/21 12:44:48;;;;;;;129.27;72.57;;;;;;;6.96;66.81;98998.62;147173;1150;104527;-71
2021/01/21 12:47:51;;;;;;;114.62;69.95;;;;;;;6.96;66.05;99000.45;147089;1150;104503;-69
2021/01/21 12:50:55;;;;;;;98.07;56.33;;;;;;;6.94;66.35;98984.70;146987;1150;104515;-71
2021/01/21 12:53:59;;;;;;;103.78;58.63;;;;;;;6.92;66.17;98991.98;146569;1149;104506;-71
2021/01/21 12:57:02;;;;;;;171.28;108.27;;;;;;;6.91;65.67;98984.18;147016;1148;104652;-72
2021/01/21 13:00:09;;;;;;;105.35;66.75;;;;;;;6.91;66.52;98990.34;147050;1150;105007;-71
2021/01/21 13:03:12;;;;;;;94.07;61.68;;;;;;;6.88;65.86;98983.52;147174;1150;104462;-72
2021/01/21 13:06:15;;;;;;;67.23;41.80;;;;;;;6.86;65.50;98982.02;147109;1149;104482;-72
2021/01/21 13:09:18;;;;;;;98.40;65.45;;;;;;;6.85;65.91;98986.51;146927;1149;104612;-71
2021/01/21 13:12:22;;;;;;;67.78;40.78;;;;;;;6.79;66.13;98987.13;146627;1150;104573;-71
2021/01/21 13:15:26;;;;;;;73.17;46.50;;;;;;;6.75;66.40;98992.91;146766;1149;104474;-73
2021/01/21 13:18:29;;;;;;;42.60;25.97;;;;;;;6.69;66.38;98987.25;146720;1149;104562;-70
2021/01/21 13:21:32;;;;;;;105.75;65.52;;;;;;;6.67;65.96;98981.28;146998;1148;104502;-69
2021/01/21 13:24:35;;;;;;;92.67;49.60;;;;;;;6.66;66.51;98971.69;146566;1148;104465;-69
2021/01/21 13:27:39;;;;;;;49.20;26.67;;;;;;;6.71;65.79;98962.42;146944;1148;104559;-69
2021/01/21 13:30:42;;;;;;;59.65;34.55;;;;;;;6.73;65.52;98966.56;147095;1149;104559;-71
2021/01/21 13:33:45;;;;;;;39.53;23.18;;;;;;;6.73;66.24;98965.73;147125;1150;104917;-71
2021/01/21 13:36:49;;;;;;;52.17;32.23;;;;;;;6.72;65.92;98958.76;147030;1150;104850;-71
2021/01/21 13:39:52;;;;;;;59.35;37.67;;;;;;;6.65;65.66;98955.93;147050;1149;104577;-69
2021/01/21 13:42:57;;;;;;;48.60;29.05;;;;;;;6.61;64.97;98951.95;147038;1150;104748;-71
2021/01/21 13:46:00;;;;;;;44.80;28.25;;;;;;;6.52;65.71;98952.89;146839;1150;104575;-70
2021/01/21 13:49:04;;;;;;;45.57;29.30;;;;;;;6.43;65.03;98949.39;147040;1148;104528;-69
2021/01/21 13:52:07;;;;;;;35.10;21.90;;;;;;;6.35;65.77;98949.33;146957;1150;104581;-69
2021/01/21 13:55:11;;;;;;;36.45;20.12;;;;;;;6.24;66.32;98950.45;146714;1148;104472;-71
2021/01/21 13:58:14;;;;;;;39.10;23.40;;;;;;;6.14;65.03;98939.13;147151;1151;104624;-71
2021/01/21 14:01:17;;;;;;;29.65;19.02;;;;;;;6.06;66.07;98947.84;147204;1150;104557;-68
2021/01/21 14:04:21;;;;;;;33.78;20.08;;;;;;;5.98;66.43;98945.98;147122;1150;104559;-68
2021/01/21 14:07:24;;;;;;;46.07;27.77;;;;;;;5.92;65.74;98945.75;147071;1148;104559;-68